sensor_id;sensor_type;location;lat;lon;timestamp;P1;durP1;ratioP1;P2;durP2;ratioP2
21816;SDS011;13247;47.504;7.382;2023-04-03T00:00:10;16.08;;;9.68;;
21816;SDS011;13247;47.504;7.382;2023-04-03T00:02:55;15.10;;;9.35;;
21816;SDS011;13247;47.504;7.382;2023-04-03T00:05:40;15.13;;;8.95;;
21816;SDS011;13247;47.504;7.382;2023-04-03T00:08:25;15.38;;;9.23;;
21816;SDS011;13247;47.504;7.382;2023-04-03T00:11:10;14.35;;;8.55;;
21816;SDS011;13247;47.504;7.382;2023-04-03T00:13:55;14.30;;;8.70;;
21816;SDS011;13247;47.504;7.382;2023-04-03T00:16:39;15.13;;;8.07;;
21816;SDS011;13247;47.504;7.382;2023-04-03T00:19:24;15.77;;;8.73;;
21816;SDS011;13247;47.504;7.382;2023-04-03T00:22:09;15.27;;;8.70;;
21816;SDS011;13247;47.504;7.382;2023-04-03T00:24:53;13.00;;;8.68;;
21816;SDS011;13247;47.504;7.382;2023-04-03T00:27:38;16.67;;;9.00;;
21816;SDS011;13247;47.504;7.382;2023-04-03T00:30:24;15.38;;;9.13;;
21816;SDS011;13247;47.504;7.382;2023-04-03T00:33:11;17.98;;;9.80;;
21816;SDS011;13247;47.504;7.382;2023-04-03T00:35:57;13.77;;;8.85;;
21816;SDS011;13247;47.504;7.382;2023-04-03T00:38:42;14.00;;;8.60;;
21816;SDS011;13247;47.504;7.382;2023-04-03T00:41:26;16.50;;;8.70;;
21816;SDS011;13247;47.504;7.382;2023-04-03T00:47:16;13.70;;;7.78;;
21816;SDS011;13247;47.504;7.382;2023-04-03T00:50:01;9.65;;;6.90;;
21816;SDS011;13247;47.504;7.382;2023-04-03T00:52:47;10.45;;;7.40;;
21816;SDS011;13247;47.504;7.382;2023-04-03T00:55:33;9.00;;;6.35;;
21816;SDS011;13247;47.504;7.382;2023-04-03T00:58:19;9.40;;;6.00;;
21816;SDS011;13247;47.504;7.382;2023-04-03T01:01:08;9.05;;;6.10;;
21816;SDS011;13247;47.504;7.382;2023-04-03T01:03:59;8.90;;;6.32;;
21816;SDS011;13247;47.504;7.382;2023-04-03T01:06:46;9.75;;;6.32;;
21816;SDS011;13247;47.504;7.382;2023-04-03T01:09:31;10.38;;;6.30;;
21816;SDS011;13247;47.504;7.382;2023-04-03T01:12:27;8.60;;;5.30;;
21816;SDS011;13247;47.504;7.382;2023-04-03T01:15:24;7.28;;;5.55;;
21816;SDS011;13247;47.504;7.382;2023-04-03T01:18:13;7.40;;;5.55;;
21816;SDS011;13247;47.504;7.382;2023-04-03T01:21:06;6.03;;;4.53;;
21816;SDS011;13247;47.504;7.382;2023-04-03T01:27:09;8.25;;;5.10;;
21816;SDS011;13247;47.504;7.382;2023-04-03T01:29:55;6.82;;;5.20;;
21816;SDS011;13247;47.504;7.382;2023-04-03T01:32:40;6.07;;;4.90;;
21816;SDS011;13247;47.504;7.382;2023-04-03T01:35:25;7.88;;;5.63;;
21816;SDS011;13247;47.504;7.382;2023-04-03T01:38:10;8.45;;;4.65;;
21816;SDS011;13247;47.504;7.382;2023-04-03T01:40:55;7.97;;;4.53;;
21816;SDS011;13247;47.504;7.382;2023-04-03T01:43:40;7.07;;;4.20;;
21816;SDS011;13247;47.504;7.382;2023-04-03T01:46:24;7.47;;;4.88;;
21816;SDS011;13247;47.504;7.382;2023-04-03T01:49:09;7.55;;;4.82;;
21816;SDS011;13247;47.504;7.382;2023-04-03T01:51:54;6.95;;;5.55;;
21816;SDS011;13247;47.504;7.382;2023-04-03T01:54:38;7.68;;;5.55;;
21816;SDS011;13247;47.504;7.382;2023-04-03T01:57:23;9.40;;;5.57;;
21816;SDS011;13247;47.504;7.382;2023-04-03T02:00:08;6.10;;;5.03;;
21816;SDS011;13247;47.504;7.382;2023-04-03T02:02:54;9.20;;;5.75;;
21816;SDS011;13247;47.504;7.382;2023-04-03T02:05:39;6.03;;;4.97;;
21816;SDS011;13247;47.504;7.382;2023-04-03T02:08:24;10.57;;;5.20;;
21816;SDS011;13247;47.504;7.382;2023-04-03T02:11:08;7.70;;;4.95;;
21816;SDS011;13247;47.504;7.382;2023-04-03T02:13:53;7.82;;;4.65;;
21816;SDS011;13247;47.504;7.382;2023-04-03T02:16:38;7.05;;;5.20;;
21816;SDS011;13247;47.504;7.382;2023-04-03T02:19:23;6.38;;;4.53;;
21816;SDS011;13247;47.504;7.382;2023-04-03T02:22:08;8.13;;;4.88;;
21816;SDS011;13247;47.504;7.382;2023-04-03T02:24:53;7.35;;;4.38;;
21816;SDS011;13247;47.504;7.382;2023-04-03T02:27:38;8.15;;;4.97;;
21816;SDS011;13247;47.504;7.382;2023-04-03T02:30:23;5.45;;;4.30;;
21816;SDS011;13247;47.504;7.382;2023-04-03T02:33:08;5.35;;;4.38;;
21816;SDS011;13247;47.504;7.382;2023-04-03T02:35:54;5.82;;;4.35;;
21816;SDS011;13247;47.504;7.382;2023-04-03T02:38:39;5.40;;;4.05;;
21816;SDS011;13247;47.504;7.382;2023-04-03T02:41:24;5.45;;;4.03;;
21816;SDS011;13247;47.504;7.382;2023-04-03T02:44:11;5.07;;;4.20;;
21816;SDS011;13247;47.504;7.382;2023-04-03T02:46:56;6.63;;;4.15;;
21816;SDS011;13247;47.504;7.382;2023-04-03T02:49:40;6.50;;;4.38;;
21816;SDS011;13247;47.504;7.382;2023-04-03T02:52:28;8.25;;;4.60;;
21816;SDS011;13247;47.504;7.382;2023-04-03T02:55:13;4.82;;;4.00;;
21816;SDS011;13247;47.504;7.382;2023-04-03T02:57:59;5.05;;;4.10;;
21816;SDS011;13247;47.504;7.382;2023-04-03T03:00:43;5.75;;;3.85;;
21816;SDS011;13247;47.504;7.382;2023-04-03T03:03:28;6.68;;;4.13;;
21816;SDS011;13247;47.504;7.382;2023-04-03T03:06:14;6.20;;;4.03;;
21816;SDS011;13247;47.504;7.382;2023-04-03T03:09:00;6.10;;;4.00;;
21816;SDS011;13247;47.504;7.382;2023-04-03T03:11:45;6.53;;;4.07;;
21816;SDS011;13247;47.504;7.382;2023-04-03T03:14:30;7.68;;;3.78;;
21816;SDS011;13247;47.504;7.382;2023-04-03T03:17:14;4.90;;;3.83;;
21816;SDS011;13247;47.504;7.382;2023-04-03T03:19:59;5.88;;;4.22;;
21816;SDS011;13247;47.504;7.382;2023-04-03T03:22:44;6.70;;;4.13;;
21816;SDS011;13247;47.504;7.382;2023-04-03T03:25:28;7.95;;;4.10;;
21816;SDS011;13247;47.504;7.382;2023-04-03T03:28:13;7.75;;;4.22;;
21816;SDS011;13247;47.504;7.382;2023-04-03T03:30:58;6.65;;;4.07;;
21816;SDS011;13247;47.504;7.382;2023-04-03T03:33:43;6.25;;;4.15;;
21816;SDS011;13247;47.504;7.382;2023-04-03T03:36:28;9.70;;;4.30;;
21816;SDS011;13247;47.504;7.382;2023-04-03T03:39:14;6.32;;;4.05;;
21816;SDS011;13247;47.504;7.382;2023-04-03T03:41:59;5.22;;;4.03;;
21816;SDS011;13247;47.504;7.382;2023-04-03T03:44:44;7.47;;;4.70;;
21816;SDS011;13247;47.504;7.382;2023-04-03T03:47:28;5.63;;;4.25;;
21816;SDS011;13247;47.504;7.382;2023-04-03T03:50:13;5.88;;;4.25;;
21816;SDS011;13247;47.504;7.382;2023-04-03T03:52:58;6.88;;;4.70;;
21816;SDS011;13247;47.504;7.382;2023-04-03T03:55:42;7.15;;;4.97;;
21816;SDS011;13247;47.504;7.382;2023-04-03T03:58:27;5.43;;;4.30;;
21816;SDS011;13247;47.504;7.382;2023-04-03T04:01:12;6.57;;;5.00;;
21816;SDS011;13247;47.504;7.382;2023-04-03T04:03:57;7.55;;;4.63;;
21816;SDS011;13247;47.504;7.382;2023-04-03T04:06:41;6.47;;;4.72;;
21816;SDS011;13247;47.504;7.382;2023-04-03T04:09:26;7.40;;;4.63;;
21816;SDS011;13247;47.504;7.382;2023-04-03T04:12:11;6.55;;;4.55;;
21816;SDS011;13247;47.504;7.382;2023-04-03T04:14:55;6.55;;;4.80;;
21816;SDS011;13247;47.504;7.382;2023-04-03T04:17:40;5.32;;;4.10;;
21816;SDS011;13247;47.504;7.382;2023-04-03T04:20:24;7.38;;;4.45;;
21816;SDS011;13247;47.504;7.382;2023-04-03T04:23:09;9.45;;;5.00;;
21816;SDS011;13247;47.504;7.382;2023-04-03T04:25:53;5.03;;;3.88;;
21816;SDS011;13247;47.504;7.382;2023-04-03T04:28:38;6.88;;;4.40;;
21816;SDS011;13247;47.504;7.382;2023-04-03T04:31:23;7.60;;;4.30;;
21816;SDS011;13247;47.504;7.382;2023-04-03T04:34:08;5.22;;;3.90;;
21816;SDS011;13247;47.504;7.382;2023-04-03T04:36:53;7.32;;;4.63;;
21816;SDS011;13247;47.504;7.382;2023-04-03T04:39:38;5.50;;;3.92;;
21816;SDS011;13247;47.504;7.382;2023-04-03T04:42:22;6.13;;;4.13;;
21816;SDS011;13247;47.504;7.382;2023-04-03T04:45:07;8.18;;;4.55;;
21816;SDS011;13247;47.504;7.382;2023-04-03T04:47:54;7.25;;;4.25;;
21816;SDS011;13247;47.504;7.382;2023-04-03T04:50:39;7.43;;;4.38;;
21816;SDS011;13247;47.504;7.382;2023-04-03T04:53:24;5.80;;;3.67;;
21816;SDS011;13247;47.504;7.382;2023-04-03T04:56:08;8.18;;;4.53;;
21816;SDS011;13247;47.504;7.382;2023-04-03T04:58:53;7.20;;;4.40;;
21816;SDS011;13247;47.504;7.382;2023-04-03T05:01:38;6.55;;;4.28;;
21816;SDS011;13247;47.504;7.382;2023-04-03T05:04:23;7.05;;;4.45;;
21816;SDS011;13247;47.504;7.382;2023-04-03T05:07:08;8.40;;;4.40;;
21816;SDS011;13247;47.504;7.382;2023-04-03T05:09:53;8.70;;;4.32;;
21816;SDS011;13247;47.504;7.382;2023-04-03T05:12:37;7.50;;;4.75;;
21816;SDS011;13247;47.504;7.382;2023-04-03T05:15:22;6.40;;;4.72;;
21816;SDS011;13247;47.504;7.382;2023-04-03T05:18:07;7.03;;;4.45;;
21816;SDS011;13247;47.504;7.382;2023-04-03T05:20:52;6.72;;;4.28;;
21816;SDS011;13247;47.504;7.382;2023-04-03T05:23:36;5.93;;;4.40;;
21816;SDS011;13247;47.504;7.382;2023-04-03T05:26:21;6.78;;;4.45;;
21816;SDS011;13247;47.504;7.382;2023-04-03T05:29:05;7.50;;;4.53;;
21816;SDS011;13247;47.504;7.382;2023-04-03T05:31:50;8.82;;;5.15;;
21816;SDS011;13247;47.504;7.382;2023-04-03T05:34:35;7.95;;;4.53;;
21816;SDS011;13247;47.504;7.382;2023-04-03T05:37:20;14.07;;;5.57;;
21816;SDS011;13247;47.504;7.382;2023-04-03T05:40:05;8.15;;;4.53;;
21816;SDS011;13247;47.504;7.382;2023-04-03T05:42:50;9.40;;;5.82;;
21816;SDS011;13247;47.504;7.382;2023-04-03T05:45:36;8.50;;;4.72;;
21816;SDS011;13247;47.504;7.382;2023-04-03T05:48:21;10.57;;;6.10;;
21816;SDS011;13247;47.504;7.382;2023-04-03T05:51:06;8.25;;;5.53;;
21816;SDS011;13247;47.504;7.382;2023-04-03T05:54:00;8.80;;;5.60;;
21816;SDS011;13247;47.504;7.382;2023-04-03T05:56:54;7.70;;;5.50;;
21816;SDS011;13247;47.504;7.382;2023-04-03T05:59:39;8.65;;;5.40;;
21816;SDS011;13247;47.504;7.382;2023-04-03T06:02:24;7.70;;;5.13;;
21816;SDS011;13247;47.504;7.382;2023-04-03T06:05:10;7.47;;;5.40;;
21816;SDS011;13247;47.504;7.382;2023-04-03T06:07:55;11.63;;;6.18;;
21816;SDS011;13247;47.504;7.382;2023-04-03T06:10:41;14.20;;;6.82;;
21816;SDS011;13247;47.504;7.382;2023-04-03T06:13:25;8.25;;;5.45;;
21816;SDS011;13247;47.504;7.382;2023-04-03T06:16:13;8.30;;;5.72;;
21816;SDS011;13247;47.504;7.382;2023-04-03T06:19:00;11.43;;;5.30;;
21816;SDS011;13247;47.504;7.382;2023-04-03T06:21:46;8.88;;;6.07;;
21816;SDS011;13247;47.504;7.382;2023-04-03T06:24:31;8.10;;;5.07;;
21816;SDS011;13247;47.504;7.382;2023-04-03T06:27:15;6.65;;;4.47;;
21816;SDS011;13247;47.504;7.382;2023-04-03T06:30:00;7.43;;;5.38;;
21816;SDS011;13247;47.504;7.382;2023-04-03T06:32:45;9.40;;;5.32;;
21816;SDS011;13247;47.504;7.382;2023-04-03T06:35:30;7.45;;;5.45;;
21816;SDS011;13247;47.504;7.382;2023-04-03T06:38:15;10.18;;;5.40;;
21816;SDS011;13247;47.504;7.382;2023-04-03T06:40:59;8.85;;;6.28;;
21816;SDS011;13247;47.504;7.382;2023-04-03T06:43:44;10.70;;;6.15;;
21816;SDS011;13247;47.504;7.382;2023-04-03T06:46:29;8.70;;;5.85;;
21816;SDS011;13247;47.504;7.382;2023-04-03T06:49:13;8.60;;;5.90;;
21816;SDS011;13247;47.504;7.382;2023-04-03T06:52:00;10.43;;;6.53;;
21816;SDS011;13247;47.504;7.382;2023-04-03T06:54:45;9.20;;;5.70;;
21816;SDS011;13247;47.504;7.382;2023-04-03T06:57:30;10.95;;;5.22;;
21816;SDS011;13247;47.504;7.382;2023-04-03T07:00:15;10.43;;;6.03;;
21816;SDS011;13247;47.504;7.382;2023-04-03T07:03:00;10.23;;;5.85;;
21816;SDS011;13247;47.504;7.382;2023-04-03T07:05:46;9.73;;;5.40;;
21816;SDS011;13247;47.504;7.382;2023-04-03T07:08:31;7.43;;;4.63;;
21816;SDS011;13247;47.504;7.382;2023-04-03T07:11:16;6.93;;;4.80;;
21816;SDS011;13247;47.504;7.382;2023-04-03T07:14:01;8.55;;;5.07;;
21816;SDS011;13247;47.504;7.382;2023-04-03T07:16:46;6.72;;;4.72;;
21816;SDS011;13247;47.504;7.382;2023-04-03T07:19:31;8.27;;;4.82;;
21816;SDS011;13247;47.504;7.382;2023-04-03T07:22:15;8.60;;;5.15;;
21816;SDS011;13247;47.504;7.382;2023-04-03T07:25:00;9.00;;;5.00;;
21816;SDS011;13247;47.504;7.382;2023-04-03T07:27:46;6.63;;;4.32;;
21816;SDS011;13247;47.504;7.382;2023-04-03T07:30:31;6.90;;;4.93;;
21816;SDS011;13247;47.504;7.382;2023-04-03T07:33:16;6.57;;;4.90;;
21816;SDS011;13247;47.504;7.382;2023-04-03T07:36:04;6.00;;;4.15;;
21816;SDS011;13247;47.504;7.382;2023-04-03T07:38:53;8.32;;;4.72;;
21816;SDS011;13247;47.504;7.382;2023-04-03T07:41:38;6.30;;;4.65;;
21816;SDS011;13247;47.504;7.382;2023-04-03T07:44:23;6.88;;;5.10;;
21816;SDS011;13247;47.504;7.382;2023-04-03T07:47:08;5.75;;;3.80;;
21816;SDS011;13247;47.504;7.382;2023-04-03T07:49:53;6.32;;;4.43;;
21816;SDS011;13247;47.504;7.382;2023-04-03T07:52:37;5.13;;;3.75;;
21816;SDS011;13247;47.504;7.382;2023-04-03T07:55:23;7.03;;;4.20;;
21816;SDS011;13247;47.504;7.382;2023-04-03T07:58:09;7.28;;;4.07;;
21816;SDS011;13247;47.504;7.382;2023-04-03T08:00:54;5.07;;;4.05;;
21816;SDS011;13247;47.504;7.382;2023-04-03T08:03:39;4.97;;;3.63;;
21816;SDS011;13247;47.504;7.382;2023-04-03T08:06:24;4.75;;;3.75;;
21816;SDS011;13247;47.504;7.382;2023-04-03T08:09:09;6.93;;;3.80;;
21816;SDS011;13247;47.504;7.382;2023-04-03T08:11:54;6.07;;;4.05;;
21816;SDS011;13247;47.504;7.382;2023-04-03T08:14:39;4.40;;;3.78;;
21816;SDS011;13247;47.504;7.382;2023-04-03T08:17:24;6.13;;;3.40;;
21816;SDS011;13247;47.504;7.382;2023-04-03T08:20:09;5.53;;;4.20;;
21816;SDS011;13247;47.504;7.382;2023-04-03T08:22:54;5.20;;;3.80;;
21816;SDS011;13247;47.504;7.382;2023-04-03T08:25:39;5.88;;;4.60;;
21816;SDS011;13247;47.504;7.382;2023-04-03T08:28:25;5.38;;;4.00;;
21816;SDS011;13247;47.504;7.382;2023-04-03T08:31:11;5.97;;;4.57;;
21816;SDS011;13247;47.504;7.382;2023-04-03T08:33:58;5.63;;;4.32;;
21816;SDS011;13247;47.504;7.382;2023-04-03T08:36:43;5.78;;;4.63;;
21816;SDS011;13247;47.504;7.382;2023-04-03T08:39:28;7.38;;;4.85;;
21816;SDS011;13247;47.504;7.382;2023-04-03T08:48:39;9.48;;;5.88;;
21816;SDS011;13247;47.504;7.382;2023-04-03T08:51:26;11.45;;;6.22;;
21816;SDS011;13247;47.504;7.382;2023-04-03T08:54:18;9.13;;;5.75;;
21816;SDS011;13247;47.504;7.382;2023-04-03T08:57:11;8.88;;;5.63;;
21816;SDS011;13247;47.504;7.382;2023-04-03T08:59:57;9.18;;;6.15;;
21816;SDS011;13247;47.504;7.382;2023-04-03T09:02:55;10.80;;;5.82;;
21816;SDS011;13247;47.504;7.382;2023-04-03T09:06:31;9.23;;;5.95;;
21816;SDS011;13247;47.504;7.382;2023-04-03T09:09:35;8.48;;;6.00;;
21816;SDS011;13247;47.504;7.382;2023-04-03T09:12:27;9.10;;;6.03;;
21816;SDS011;13247;47.504;7.382;2023-04-03T09:15:34;9.05;;;6.03;;
21816;SDS011;13247;47.504;7.382;2023-04-03T09:18:31;9.32;;;6.00;;
21816;SDS011;13247;47.504;7.382;2023-04-03T09:21:25;8.70;;;5.53;;
21816;SDS011;13247;47.504;7.382;2023-04-03T09:24:18;8.07;;;5.47;;
21816;SDS011;13247;47.504;7.382;2023-04-03T09:27:08;11.10;;;5.85;;
21816;SDS011;13247;47.504;7.382;2023-04-03T09:29:55;9.00;;;5.53;;
21816;SDS011;13247;47.504;7.382;2023-04-03T09:32:41;7.15;;;4.90;;
21816;SDS011;13247;47.504;7.382;2023-04-03T09:35:29;7.78;;;5.25;;
21816;SDS011;13247;47.504;7.382;2023-04-03T09:38:17;9.50;;;5.93;;
21816;SDS011;13247;47.504;7.382;2023-04-03T09:41:05;10.25;;;5.13;;
21816;SDS011;13247;47.504;7.382;2023-04-03T09:43:57;7.93;;;4.95;;
21816;SDS011;13247;47.504;7.382;2023-04-03T09:46:42;6.82;;;4.93;;
21816;SDS011;13247;47.504;7.382;2023-04-03T09:49:27;8.38;;;5.35;;
21816;SDS011;13247;47.504;7.382;2023-04-03T09:52:18;7.57;;;5.22;;
21816;SDS011;13247;47.504;7.382;2023-04-03T09:55:07;7.43;;;5.13;;
21816;SDS011;13247;47.504;7.382;2023-04-03T09:58:02;6.00;;;4.82;;
21816;SDS011;13247;47.504;7.382;2023-04-03T10:00:53;10.88;;;4.90;;
21816;SDS011;13247;47.504;7.382;2023-04-03T10:03:39;6.28;;;4.30;;
21816;SDS011;13247;47.504;7.382;2023-04-03T10:06:31;6.20;;;4.45;;
21816;SDS011;13247;47.504;7.382;2023-04-03T10:12:11;5.95;;;4.05;;
21816;SDS011;13247;47.504;7.382;2023-04-03T10:15:00;6.93;;;4.70;;
21816;SDS011;13247;47.504;7.382;2023-04-03T10:17:58;5.15;;;4.07;;
21816;SDS011;13247;47.504;7.382;2023-04-03T10:20:47;6.10;;;4.25;;
21816;SDS011;13247;47.504;7.382;2023-04-03T10:23:45;5.32;;;3.97;;
21816;SDS011;13247;47.504;7.382;2023-04-03T10:33:14;7.22;;;4.15;;
21816;SDS011;13247;47.504;7.382;2023-04-03T10:48:01;4.53;;;3.72;;
21816;SDS011;13247;47.504;7.382;2023-04-03T10:54:11;4.60;;;3.17;;
21816;SDS011;13247;47.504;7.382;2023-04-03T10:57:10;4.45;;;3.10;;
21816;SDS011;13247;47.504;7.382;2023-04-03T11:00:03;4.40;;;3.00;;
21816;SDS011;13247;47.504;7.382;2023-04-03T11:02:57;3.80;;;2.97;;
21816;SDS011;13247;47.504;7.382;2023-04-03T11:05:45;5.00;;;2.75;;
21816;SDS011;13247;47.504;7.382;2023-04-03T11:11:45;4.53;;;3.00;;
21816;SDS011;13247;47.504;7.382;2023-04-03T11:14:31;6.80;;;3.33;;
21816;SDS011;13247;47.504;7.382;2023-04-03T11:23:19;3.30;;;2.70;;
21816;SDS011;13247;47.504;7.382;2023-04-03T11:26:11;3.00;;;2.20;;
21816;SDS011;13247;47.504;7.382;2023-04-03T11:28:59;3.45;;;2.55;;
21816;SDS011;13247;47.504;7.382;2023-04-03T11:31:56;3.40;;;2.67;;
21816;SDS011;13247;47.504;7.382;2023-04-03T11:34:52;3.25;;;2.70;;
21816;SDS011;13247;47.504;7.382;2023-04-03T11:37:49;2.75;;;2.05;;
21816;SDS011;13247;47.504;7.382;2023-04-03T11:40:36;3.72;;;2.30;;
21816;SDS011;13247;47.504;7.382;2023-04-03T11:43:23;3.33;;;2.33;;
21816;SDS011;13247;47.504;7.382;2023-04-03T11:46:10;3.50;;;2.30;;
21816;SDS011;13247;47.504;7.382;2023-04-03T11:48:54;2.70;;;2.20;;
21816;SDS011;13247;47.504;7.382;2023-04-03T11:51:40;3.38;;;2.50;;
21816;SDS011;13247;47.504;7.382;2023-04-03T11:57:44;2.90;;;2.38;;
21816;SDS011;13247;47.504;7.382;2023-04-03T12:06:42;3.55;;;2.85;;
21816;SDS011;13247;47.504;7.382;2023-04-03T12:12:37;2.80;;;2.40;;
21816;SDS011;13247;47.504;7.382;2023-04-03T12:15:25;3.33;;;2.75;;
21816;SDS011;13247;47.504;7.382;2023-04-03T12:24:30;4.07;;;3.20;;
21816;SDS011;13247;47.504;7.382;2023-04-03T12:27:29;4.63;;;3.10;;
21816;SDS011;13247;47.504;7.382;2023-04-03T12:30:22;5.10;;;2.80;;
21816;SDS011;13247;47.504;7.382;2023-04-03T12:33:20;5.15;;;2.90;;
21816;SDS011;13247;47.504;7.382;2023-04-03T12:36:26;3.60;;;2.78;;
21816;SDS011;13247;47.504;7.382;2023-04-03T12:42:55;3.38;;;2.38;;
21816;SDS011;13247;47.504;7.382;2023-04-03T12:51:38;2.80;;;2.47;;
21816;SDS011;13247;47.504;7.382;2023-04-03T12:57:19;2.83;;;2.10;;
21816;SDS011;13247;47.504;7.382;2023-04-03T13:03:22;2.28;;;1.83;;
21816;SDS011;13247;47.504;7.382;2023-04-03T13:06:10;2.75;;;2.28;;
21816;SDS011;13247;47.504;7.382;2023-04-03T13:12:22;1.50;;;1.40;;
21816;SDS011;13247;47.504;7.382;2023-04-03T13:15:20;2.13;;;1.55;;
21816;SDS011;13247;47.504;7.382;2023-04-03T13:21:17;3.40;;;2.60;;
21816;SDS011;13247;47.504;7.382;2023-04-03T13:24:07;2.20;;;1.90;;
21816;SDS011;13247;47.504;7.382;2023-04-03T13:26:53;1.63;;;1.52;;
21816;SDS011;13247;47.504;7.382;2023-04-03T13:29:39;1.77;;;1.67;;
21816;SDS011;13247;47.504;7.382;2023-04-03T13:32:24;3.53;;;1.77;;
21816;SDS011;13247;47.504;7.382;2023-04-03T13:35:25;3.40;;;1.90;;
21816;SDS011;13247;47.504;7.382;2023-04-03T13:41:03;1.67;;;1.58;;
21816;SDS011;13247;47.504;7.382;2023-04-03T13:47:21;2.40;;;2.20;;
21816;SDS011;13247;47.504;7.382;2023-04-03T13:53:00;2.55;;;1.88;;
21816;SDS011;13247;47.504;7.382;2023-04-03T13:55:58;2.47;;;2.03;;
21816;SDS011;13247;47.504;7.382;2023-04-03T13:58:54;2.35;;;2.00;;
21816;SDS011;13247;47.504;7.382;2023-04-03T14:01:46;2.45;;;2.22;;
21816;SDS011;13247;47.504;7.382;2023-04-03T14:04:48;2.00;;;1.80;;
21816;SDS011;13247;47.504;7.382;2023-04-03T14:07:36;2.92;;;2.17;;
21816;SDS011;13247;47.504;7.382;2023-04-03T14:10:21;2.05;;;1.85;;
21816;SDS011;13247;47.504;7.382;2023-04-03T14:13:06;2.90;;;1.90;;
21816;SDS011;13247;47.504;7.382;2023-04-03T14:15:53;4.07;;;2.55;;
21816;SDS011;13247;47.504;7.382;2023-04-03T14:18:38;3.42;;;2.50;;
21816;SDS011;13247;47.504;7.382;2023-04-03T14:21:22;2.15;;;1.85;;
21816;SDS011;13247;47.504;7.382;2023-04-03T14:24:07;3.22;;;2.20;;
21816;SDS011;13247;47.504;7.382;2023-04-03T14:26:52;2.17;;;1.70;;
21816;SDS011;13247;47.504;7.382;2023-04-03T14:29:38;3.17;;;2.80;;
21816;SDS011;13247;47.504;7.382;2023-04-03T14:32:24;2.85;;;2.35;;
21816;SDS011;13247;47.504;7.382;2023-04-03T14:35:09;2.42;;;1.90;;
21816;SDS011;13247;47.504;7.382;2023-04-03T14:37:54;3.78;;;1.80;;
21816;SDS011;13247;47.504;7.382;2023-04-03T14:40:39;2.10;;;1.90;;
21816;SDS011;13247;47.504;7.382;2023-04-03T14:43:24;3.78;;;2.70;;
21816;SDS011;13247;47.504;7.382;2023-04-03T14:48:59;5.97;;;3.10;;
21816;SDS011;13247;47.504;7.382;2023-04-03T14:51:44;4.60;;;2.55;;
21816;SDS011;13247;47.504;7.382;2023-04-03T14:54:28;4.07;;;2.08;;
21816;SDS011;13247;47.504;7.382;2023-04-03T14:57:14;2.85;;;1.92;;
21816;SDS011;13247;47.504;7.382;2023-04-03T15:00:00;2.28;;;1.90;;
21816;SDS011;13247;47.504;7.382;2023-04-03T15:02:46;4.15;;;2.40;;
21816;SDS011;13247;47.504;7.382;2023-04-03T15:05:31;7.28;;;4.35;;
21816;SDS011;13247;47.504;7.382;2023-04-03T15:08:20;4.50;;;2.20;;
21816;SDS011;13247;47.504;7.382;2023-04-03T15:11:10;4.85;;;2.70;;
21816;SDS011;13247;47.504;7.382;2023-04-03T15:13:54;3.05;;;2.15;;
21816;SDS011;13247;47.504;7.382;2023-04-03T15:16:39;3.85;;;2.47;;
21816;SDS011;13247;47.504;7.382;2023-04-03T15:19:24;5.95;;;3.50;;
21816;SDS011;13247;47.504;7.382;2023-04-03T15:22:13;2.58;;;2.20;;
21816;SDS011;13247;47.504;7.382;2023-04-03T15:25:00;2.75;;;2.05;;
21816;SDS011;13247;47.504;7.382;2023-04-03T15:27:45;1.88;;;1.70;;
21816;SDS011;13247;47.504;7.382;2023-04-03T15:30:29;4.50;;;2.50;;
21816;SDS011;13247;47.504;7.382;2023-04-03T15:33:14;2.72;;;2.33;;
21816;SDS011;13247;47.504;7.382;2023-04-03T15:35:59;3.72;;;2.42;;
21816;SDS011;13247;47.504;7.382;2023-04-03T15:38:44;3.67;;;1.90;;
21816;SDS011;13247;47.504;7.382;2023-04-03T15:41:29;4.43;;;3.22;;
21816;SDS011;13247;47.504;7.382;2023-04-03T15:44:13;3.72;;;2.85;;
21816;SDS011;13247;47.504;7.382;2023-04-03T15:47:01;2.63;;;2.35;;
21816;SDS011;13247;47.504;7.382;2023-04-03T15:49:46;3.17;;;1.88;;
21816;SDS011;13247;47.504;7.382;2023-04-03T15:52:31;1.60;;;1.50;;
21816;SDS011;13247;47.504;7.382;2023-04-03T15:55:16;2.05;;;1.85;;
21816;SDS011;13247;47.504;7.382;2023-04-03T15:58:00;1.70;;;1.52;;
21816;SDS011;13247;47.504;7.382;2023-04-03T16:00:46;2.78;;;1.77;;
21816;SDS011;13247;47.504;7.382;2023-04-03T16:03:30;2.42;;;1.90;;
21816;SDS011;13247;47.504;7.382;2023-04-03T16:06:15;3.85;;;2.20;;
21816;SDS011;13247;47.504;7.382;2023-04-03T16:09:02;3.38;;;1.73;;
21816;SDS011;13247;47.504;7.382;2023-04-03T16:11:47;2.22;;;2.00;;
21816;SDS011;13247;47.504;7.382;2023-04-03T16:14:32;1.98;;;1.50;;
21816;SDS011;13247;47.504;7.382;2023-04-03T16:17:17;1.85;;;1.65;;
21816;SDS011;13247;47.504;7.382;2023-04-03T16:20:02;3.42;;;1.55;;
21816;SDS011;13247;47.504;7.382;2023-04-03T16:22:48;1.60;;;1.50;;
21816;SDS011;13247;47.504;7.382;2023-04-03T16:25:34;4.45;;;2.17;;
21816;SDS011;13247;47.504;7.382;2023-04-03T16:28:18;2.97;;;1.67;;
21816;SDS011;13247;47.504;7.382;2023-04-03T16:31:03;2.38;;;1.50;;
21816;SDS011;13247;47.504;7.382;2023-04-03T16:33:50;1.70;;;1.60;;
21816;SDS011;13247;47.504;7.382;2023-04-03T16:36:35;2.17;;;1.40;;
21816;SDS011;13247;47.504;7.382;2023-04-03T16:39:21;2.05;;;1.60;;
21816;SDS011;13247;47.504;7.382;2023-04-03T16:42:05;2.15;;;1.77;;
21816;SDS011;13247;47.504;7.382;2023-04-03T16:44:52;2.70;;;1.90;;
21816;SDS011;13247;47.504;7.382;2023-04-03T16:47:37;1.70;;;1.60;;
21816;SDS011;13247;47.504;7.382;2023-04-03T16:50:22;1.75;;;1.58;;
21816;SDS011;13247;47.504;7.382;2023-04-03T16:53:07;2.38;;;1.63;;
21816;SDS011;13247;47.504;7.382;2023-04-03T16:55:53;2.00;;;1.65;;
21816;SDS011;13247;47.504;7.382;2023-04-03T16:58:38;3.45;;;1.67;;
21816;SDS011;13247;47.504;7.382;2023-04-03T17:01:22;1.60;;;1.50;;
21816;SDS011;13247;47.504;7.382;2023-04-03T17:04:07;2.35;;;1.73;;
21816;SDS011;13247;47.504;7.382;2023-04-03T17:06:52;3.97;;;1.65;;
21816;SDS011;13247;47.504;7.382;2023-04-03T17:09:36;2.58;;;2.25;;
21816;SDS011;13247;47.504;7.382;2023-04-03T17:12:21;3.97;;;2.17;;
21816;SDS011;13247;47.504;7.382;2023-04-03T17:15:06;4.22;;;2.10;;
21816;SDS011;13247;47.504;7.382;2023-04-03T17:17:51;1.73;;;1.63;;
21816;SDS011;13247;47.504;7.382;2023-04-03T17:20:36;1.67;;;1.58;;
21816;SDS011;13247;47.504;7.382;2023-04-03T17:23:23;2.42;;;1.90;;
21816;SDS011;13247;47.504;7.382;2023-04-03T17:26:09;3.67;;;2.20;;
21816;SDS011;13247;47.504;7.382;2023-04-03T17:28:53;5.35;;;1.90;;
21816;SDS011;13247;47.504;7.382;2023-04-03T17:31:39;3.40;;;2.20;;
21816;SDS011;13247;47.504;7.382;2023-04-03T17:34:24;1.95;;;1.73;;
21816;SDS011;13247;47.504;7.382;2023-04-03T17:37:09;2.95;;;1.98;;
21816;SDS011;13247;47.504;7.382;2023-04-03T17:39:54;2.03;;;1.77;;
21816;SDS011;13247;47.504;7.382;2023-04-03T17:42:39;3.65;;;1.70;;
21816;SDS011;13247;47.504;7.382;2023-04-03T17:45:24;3.97;;;1.92;;
21816;SDS011;13247;47.504;7.382;2023-04-03T17:48:09;2.38;;;1.95;;
21816;SDS011;13247;47.504;7.382;2023-04-03T17:50:54;3.47;;;1.63;;
21816;SDS011;13247;47.504;7.382;2023-04-03T17:53:39;1.70;;;1.60;;
21816;SDS011;13247;47.504;7.382;2023-04-03T17:56:24;1.65;;;1.50;;
21816;SDS011;13247;47.504;7.382;2023-04-03T17:59:10;4.78;;;2.03;;
21816;SDS011;13247;47.504;7.382;2023-04-03T18:01:55;2.20;;;2.00;;
21816;SDS011;13247;47.504;7.382;2023-04-03T18:04:39;2.72;;;1.95;;
21816;SDS011;13247;47.504;7.382;2023-04-03T18:07:24;2.33;;;2.10;;
21816;SDS011;13247;47.504;7.382;2023-04-03T18:10:09;3.90;;;1.65;;
21816;SDS011;13247;47.504;7.382;2023-04-03T18:12:54;2.50;;;1.65;;
21816;SDS011;13247;47.504;7.382;2023-04-03T18:15:40;3.65;;;2.00;;
21816;SDS011;13247;47.504;7.382;2023-04-03T18:18:28;1.92;;;1.75;;
21816;SDS011;13247;47.504;7.382;2023-04-03T18:21:13;2.80;;;1.88;;